Flight Track Log - Related Links

Times and Time Zones

All times are in EDT time to prevent confusion due to time zone crossing. See the QFA1051 flight status page for this flight to view local times or setup timezone preferences in your user account.

Time Position Orientation Groundspeed Altitude Reporting Facility
EDT Latitude Longitude Course Direction KTS MPH feet Rate Location/Type
12:21AM -17.9496 122.2277 133° Southeast 34,000  Level Aus ATC (Calculated)
12:21AM -18.0108 122.2962 133° Southeast 34,000 -64 Level Aus ATC (Calculated)
12:22AM -18.0681 122.3605 133° Southeast 34,000 -64 Level Aus ATC (Calculated)
12:24AM -18.2134 122.5244 133° Southeast  Level FlightAware Approximate
12:24AM -18.1755 122.4811 133° Southeast 34,000  Level Aus ATC (Calculated)
12:24AM -18.1755 122.4811 133° Southeast 34,000 -66 Level Aus ATC (Calculated)
12:25AM -18.2225 122.5340 133° Southeast 34,000 -66 Level Aus ATC (Calculated)
12:27AM -18.3698 122.7005 133° Southeast  Level FlightAware Approximate
12:27AM -18.3546 122.6827 133° Southeast 34,000  Level Aus ATC (Calculated)
12:29AM -18.5089 122.8577 133° Southeast  Level FlightAware Approximate
12:29AM -18.4975 122.8440 133° Southeast 34,000  Level Aus ATC (Calculated)
12:30AM -18.5511 122.9046 133° Southeast 34,000 -71 Level Aus ATC (Calculated)
12:32AM -18.7066 123.0817 133° Southeast  Level FlightAware Approximate
12:32AM -18.7384 123.1169 133° Southeast 34,000  Level Aus ATC (Calculated)
12:33AM -18.7852 123.1700 133° Southeast 34,000 -74 Level Aus ATC (Calculated)
12:34AM -18.8728 123.2698 133° Southeast 34,000 -75 Level Aus ATC (Calculated)
12:35AM -18.9254 123.3296 133° Southeast 35,000 -76 Climbing Aus ATC (Calculated)
12:36AM -19.0508 123.4735 133° Southeast 35,000 -93 Level Aus ATC (Calculated)
12:37AM -19.1761 123.6175 133° Southeast 35,000 -95 Level Aus ATC (Calculated)
12:38AM -19.1702 123.6107 133° Southeast  Level FlightAware Approximate
12:39AM -19.2677 123.7231 133° Southeast  Level FlightAware Approximate
12:40AM -19.3549 123.8238 133° Southeast  Level FlightAware Approximate
12:40AM -19.4888 123.9786 133° Southeast 35,000  Level Aus ATC (Calculated)
12:41AM -19.4421 123.9246 133° Southeast  Level FlightAware Approximate
12:42AM -19.5874 124.0930 132° Southeast  Level FlightAware Approximate
12:43AM -19.6744 124.1941 132° Southeast  Level FlightAware Approximate
12:43AM -19.7384 124.2685 133° Southeast 35,000  Level Aus ATC (Calculated)
12:44AM -19.7614 124.2953 132° Southeast  Level FlightAware Approximate
12:45AM -19.8369 124.3833 132° Southeast  Level FlightAware Approximate
12:46AM -19.9237 124.4846 132° Southeast  Level FlightAware Approximate
12:47AM -20.0105 124.5861 132° Southeast  Level FlightAware Approximate
12:48AM -20.0972 124.6877 132° Southeast  Level FlightAware Approximate
12:48AM -20.1741 124.7779 133° Southeast 35,000  Level Aus ATC (Calculated)
12:49AM -20.1838 124.7895 132° Southeast  Level FlightAware Approximate
12:50AM -20.2736 124.8950 132° Southeast  Level FlightAware Approximate
12:51AM -20.3602 124.9970 132° Southeast  Level FlightAware Approximate
12:51AM -20.4223 125.0703 132° Southeast 35,000  Level Aus ATC (Calculated)
12:53AM -20.6002 125.2330 132° Southeast  Level Estimated
12:53AM -20.6082 125.2902 132° Southeast 35,000  Level Aus ATC (Calculated)
12:54AM -20.6922 125.3432 132° Southeast  Level FlightAware Approximate
12:55AM -20.7077 125.4077 132° Southeast  Level FlightAware Approximate
12:56AM -20.7942 125.5100 132° Southeast  Level FlightAware Approximate
12:56AM -20.8556 125.5842 132° Southeast 35,000  Level Aus ATC (Calculated)
12:57AM -20.9174 125.6578 132° Southeast 35,000 -138 Level Aus ATC (Calculated)
12:59AM -21.0742 125.8443 132° Southeast  Level FlightAware Approximate
12:59AM -21.1353 125.9171 132° Southeast 35,000  Level Aus ATC (Calculated)
01:00AM -21.1604 125.9471 132° Southeast  Level FlightAware Approximate
01:01AM -21.2717 126.0800 132° Southeast  Level FlightAware Approximate
01:02AM -21.3578 126.1831 132° Southeast  Level FlightAware Approximate
01:03AM -21.4438 126.2863 132° Southeast  Level FlightAware Approximate
01:04AM -21.5298 126.3896 132° Southeast  Level FlightAware Approximate
01:04AM -21.6783 126.5686 132° Southeast 35,000  Level Aus ATC (Calculated)
01:05AM -21.6157 126.4930 132° Southeast  Level FlightAware Approximate
01:05AM -21.7144 126.6122 132° Southeast 35,000  Level Aus ATC (Calculated)
01:06AM -21.7866 126.6994 132° Southeast 35,000 -173 Level Aus ATC (Calculated)
01:07AM -21.9308 126.8742 132° Southeast 35,000 -177 Level Aus ATC (Calculated)
01:09AM -22.0663 127.0390 132° Southeast  Level FlightAware Approximate
01:10AM -22.1518 127.1432 132° Southeast  Level FlightAware Approximate
01:11AM -22.2372 127.2475 132° Southeast  Level FlightAware Approximate
01:12AM -22.3226 127.3520 131° Southeast  Level FlightAware Approximate
01:12AM -22.3983 127.4448 132° Southeast 35,000  Level Aus ATC (Calculated)
01:14AM -22.5346 127.6124 131° Southeast  Level FlightAware Approximate
01:15AM -22.6197 127.7173 131° Southeast  Level FlightAware Approximate
01:16AM -22.7048 127.8223 131° Southeast  Level FlightAware Approximate
01:17AM -22.7897 127.9275 131° Southeast  Level FlightAware Approximate
01:17AM -22.8636 128.0191 132° Southeast 35,000  Level Aus ATC (Calculated)
01:18AM -23.0064 128.1966 132° Southeast 35,000 -267 Level Aus ATC (Calculated)
01:18AM -23.0064 128.1966 132° Southeast 35,000 -283 Level Aus ATC (Calculated)
01:19AM -23.0777 128.2855 132° Southeast 35,000 -285 Level Aus ATC (Calculated)
01:19AM -23.0777 128.2855 132° Southeast 35,000 -295 Level Aus ATC (Calculated)
01:21AM -23.1962 128.4336 131° Southeast  Level FlightAware Approximate
01:21AM -23.2202 128.4636 132° Southeast 35,000  Level Aus ATC (Calculated)
01:22AM -23.3433 128.6183 132° Southeast 35,000 -321 Level Aus ATC (Calculated)
01:24AM -23.1984 128.4362 311° West  Level FlightAware Approximate
01:25AM -23.2828 128.5422 131° Southeast  Level FlightAware Approximate
01:25AM -23.7119 129.0843 132° Southeast 35,000  Level Aus ATC (Calculated)
01:26AM -23.1984 128.4362 311° West  Level FlightAware Approximate
01:27AM -23.8157 129.1807 131° Southeast  Level Estimated
01:27AM -23.8344 129.2402 132° Southeast 35,000  Level Aus ATC (Calculated)
01:29AM -23.9737 129.4178 131° Southeast  Level FlightAware Approximate
01:30AM -24.0571 129.5246 131° Southeast  Level FlightAware Approximate
01:31AM -24.1405 129.6315 131° Southeast  Level FlightAware Approximate
01:32AM -24.2238 129.7385 130° Southeast  Level FlightAware Approximate
01:32AM -24.2620 129.7882 132° Southeast 35,000  Level Aus ATC (Calculated)
01:34AM -24.4083 129.9768 130° Southeast  Level FlightAware Approximate
01:35AM -24.4917 130.0847 130° Southeast  Level FlightAware Approximate
01:36AM -24.5751 130.1929 130° Southeast  Level FlightAware Approximate
01:37AM -24.6585 130.3011 130° Southeast  Level FlightAware Approximate
01:37AM -24.7482 130.4189 135° Southeast 35,000  Level Aus ATC (Calculated)
01:39AM -24.8952 130.6107 130° Southeast  Level FlightAware Approximate
01:39AM -24.9903 130.7361 185° South 35,000  Level Aus ATC (Calculated)
01:39AM -25.0300 130.7320 130° Southeast 529 609 29,000 -8,571 Descending FlightAware
01:40AM -24.9783 130.7194 130° Southeast  Level FlightAware Approximate
01:40AM -25.0890 130.8070 131° Southeast 529 609 29,000  Level FlightAware
01:40AM -25.0508 130.8156 151° Southeast 35,000  Climbing Aus ATC (Calculated)
01:41AM -25.1370 130.8690 131° Southeast 529 609 29,000 -8,780 Descending FlightAware
01:41AM -25.1980 130.9450 132° Southeast 529 609 29,000  Level FlightAware
01:42AM -25.2490 131.0110 132° Southeast 530 610 29,000  Level FlightAware
01:42AM -25.2096 131.0433 157° South 35,000  Climbing Aus ATC (Calculated)
01:42AM -25.3130 131.0930 132° Southeast 531 611 29,000 -4,675 Descending FlightAware
01:43AM -25.3720 131.1700 130° Southeast 531 611 29,000  Level FlightAware
01:44AM -25.4390 131.2540 131° Southeast 535 616 29,000  Level FlightAware
01:44AM -25.4950 131.3260 131° Southeast 535 616 29,000  Level FlightAware
01:45AM -25.5460 131.3910 131° Southeast 536 617 29,000  Level FlightAware
01:45AM -25.6080 131.4710 131° Southeast 536 617 29,000  Level FlightAware
01:46AM -25.6590 131.5370 131° Southeast 537 618 29,000  Level FlightAware
01:47AM -25.7240 131.6210 131° Southeast 538 619 29,000  Level FlightAware
01:47AM -25.5887 131.7310 191° South 35,000  Climbing Aus ATC (Calculated)
01:47AM -25.7760 131.6890 130° Southeast 537 618 29,000 -6,545 Descending FlightAware
01:48AM -25.8340 131.7630 130° Southeast 537 618 29,000  Level FlightAware
01:48AM -25.8920 131.8390 130° Southeast 536 617 29,000  Level FlightAware
01:49AM -25.9550 131.9220 130° Southeast 535 616 29,000  Level FlightAware
01:50AM -25.8146 132.1457 211° Southwest 35,000  Climbing Aus ATC (Calculated)
01:50AM -26.0200 132.0060 131° Southeast 534 615 29,000 -9,000 Descending FlightAware
01:50AM -26.0810 132.0860 131° Southeast 534 615 29,000  Level FlightAware
01:51AM -26.1410 132.1640 131° Southeast 534 615 29,000  Level FlightAware
01:51AM -26.1890 132.2270 130° Southeast 534 615 29,000  Level FlightAware
01:52AM -26.0020 132.4924 216° Southwest 35,000  Climbing Aus ATC (Calculated)
01:52AM -26.2450 132.2990 131° Southeast 534 615 29,000 -6,923 Descending FlightAware
01:53AM -26.3080 132.3830 131° Southeast 534 615 29,000  Level FlightAware
01:53AM -26.3850 132.4840 130° Southeast 533 613 29,000  Level FlightAware
01:54AM -26.4430 132.5600 130° Southeast 531 611 29,000  Level FlightAware
01:54AM -26.4880 132.6200 130° Southeast 530 610 29,000  Level FlightAware
01:55AM -26.5480 132.6990 130° Southeast 530 610 29,000  Level FlightAware
01:56AM -26.6010 132.7690 130° Southeast 528 608 29,000  Level FlightAware
01:56AM -26.6510 132.8370 129° Southeast 528 608 29,000  Level FlightAware
01:57AM -26.3742 133.1893 210° Southwest 35,000  Climbing Aus ATC (Calculated)
01:57AM -26.7390 132.9530 130° Southeast 527 606 29,000 -5,070 Descending FlightAware
01:58AM -26.8040 133.0420 130° Southeast 527 606 29,000  Level FlightAware
01:58AM -26.8510 133.1070 129° Southeast 527 606 29,000  Level FlightAware
01:59AM -26.8980 133.1720 129° Southeast 527 606 29,000  Level FlightAware
02:00AM -26.9450 133.2370 129° Southeast 527 606 29,000  Level FlightAware
02:00AM -26.9920 133.3020 129° Southeast 527 606 29,000  Level FlightAware
02:01AM -27.0380 133.3670 128° Southeast 527 606 29,000 193 Level FlightAware
02:02AM -26.7797 133.9609 136° Southeast 35,000 196 Climbing Aus ATC (Calculated)
02:04AM -26.9649 134.1198 143° Southeast  Level Estimated
02:05AM -27.0677 134.2084 143° Southeast  Level Estimated
02:06AM -27.1704 134.2971 142° Southeast  Level Estimated
02:07AM -27.2731 134.3860 142° Southeast  Level Estimated
02:07AM -27.1809 134.7380 138° Southeast 35,000  Level Aus ATC (Calculated)
02:09AM -27.3683 134.8941 144° Southeast  Level Estimated
02:10AM -27.4724 134.9812 143° Southeast  Level Estimated
02:11AM -27.5764 135.0683 143° Southeast  Level Estimated
02:12AM -27.6803 135.1557 143° Southeast  Level Estimated
02:12AM -27.5419 135.4492 140° Southeast 35,000  Level Aus ATC (Calculated)
02:13AM -27.7127 135.7755 142° Southeast 35,000 69 Level Aus ATC (Calculated)
02:15AM -27.8351 135.8729 145° Southeast  Level Estimated
02:16AM -27.9416 135.9577 145° Southeast  Level Estimated
02:16AM -27.9250 136.1849 144° Southeast 35,000  Level Aus ATC (Calculated)
02:17AM -28.0480 136.0426 145° Southeast  Level Estimated
02:17AM -27.9673 136.2670 144° Southeast 35,000  Level Aus ATC (Calculated)
02:19AM -28.1625 136.4184 146° Southeast  Level Estimated
02:20AM -28.2699 136.5019 146° Southeast  Level Estimated
02:20AM -28.2949 136.8121 148° Southeast 35,000  Level Aus ATC (Calculated)
02:21AM -28.3696 136.8636 148° Southeast 35,000 95 Level Aus ATC (Calculated)
02:22AM -28.4443 136.9151 148° Southeast 35,000 97 Level Aus ATC (Calculated)
02:23AM -28.5935 137.0184 147° Southeast 35,000 102 Level Aus ATC (Calculated)
02:24AM -28.6681 137.0701 147° Southeast 35,000 107 Level Aus ATC (Calculated)
02:24AM -28.7427 137.1219 147° Southeast 35,000 112 Level Aus ATC (Calculated)
02:25AM -28.8173 137.1738 147° Southeast 35,000 116 Level Aus ATC (Calculated)
02:27AM -29.0233 137.3320 146° Southeast  Level Estimated
02:28AM -29.1355 137.4186 146° Southeast  Level Estimated
02:28AM -29.1153 137.3821 147° Southeast 35,000  Level Aus ATC (Calculated)
02:30AM -29.3302 137.5488 146° Southeast  Level Estimated
02:31AM -29.4422 137.6360 146° Southeast  Level Estimated
02:31AM -29.4874 137.6442 146° Southeast 35,000  Level Aus ATC (Calculated)
02:33AM -29.7016 137.8125 146° Southeast  Level Estimated
02:34AM -29.8133 137.9005 146° Southeast  Level Estimated
02:35AM -29.9250 137.9888 146° Southeast  Level Estimated
02:36AM -30.0366 138.0773 146° Southeast  Level Estimated
02:36AM -30.0074 138.0143 145° Southeast 35,000  Level Aus ATC (Calculated)
02:37AM -30.2299 138.1740 144° Southeast 35,000 312 Level Aus ATC (Calculated)
02:38AM -30.2226 138.1864 145° Southeast  Level Estimated
02:39AM -30.3614 138.2800 145° Southeast  Level Estimated
02:39AM -30.4522 138.3345 142° Southeast 35,000  Level Aus ATC (Calculated)
02:40AM -30.4724 138.3698 145° Southeast  Level Estimated
02:41AM -30.5834 138.4412 145° Southeast  Level Estimated
02:42AM -30.6942 138.5315 145° Southeast  Level Estimated
02:42AM -30.9068 138.7439 145° Southeast 474 545 37,100  Level Aus ATC (RADAR)
02:43AM -31.0091 138.8543 137° Southeast 495 570 37,100  Level Aus ATC (RADAR)
02:44AM -31.0861 138.9343 138° Southeast 497 572 37,100  Level Aus ATC (RADAR)
02:45AM -31.1459 138.9964 138° Southeast 496 571 37,100  Level Aus ATC (RADAR)
02:45AM -31.2314 139.0853 138° Southeast 495 570 37,100  Level Aus ATC (RADAR)
02:46AM -31.3339 139.1928 138° Southeast 497 572 37,100  Level Aus ATC (RADAR)
02:47AM -31.4200 139.2821 139° Southeast 498 573 37,100  Level Aus ATC (RADAR)
02:48AM -31.4713 139.3374 137° Southeast 499 574 37,100  Level Aus ATC (RADAR)
02:48AM -31.5312 139.4006 138° Southeast 498 573 37,100  Level Aus ATC (RADAR)
02:49AM -31.6084 139.4820 138° Southeast 500 575 37,100  Level Aus ATC (RADAR)
02:50AM -31.6683 139.5448 138° Southeast 499 574 37,100  Level Aus ATC (RADAR)
02:51AM -31.7538 139.6362 138° Southeast 499 574 37,100  Level Aus ATC (RADAR)
02:52AM -31.8557 139.7453 138° Southeast 500 575 37,100  Level Aus ATC (RADAR)
02:53AM -31.9577 139.8533 138° Southeast 498 573 37,100  Level Aus ATC (RADAR)
02:54AM -32.0586 139.9616 138° Southeast 496 571 37,100  Level Aus ATC (RADAR)
02:54AM -32.1342 140.0419 138° Southeast 493 567 37,100  Level Aus ATC (RADAR)
02:55AM -32.1933 140.1068 137° Southeast 496 571 37,100 -115 Level Aus ATC (RADAR)
02:55AM -32.2140 140.1290 138° Southeast 485 558 37,000  Descending FlightAware
02:56AM -32.2763 140.1951 138° Southeast 489 563 37,100  Climbing Aus ATC (RADAR)
02:56AM -32.3090 140.2300 138° Southeast 490 564 37,000  Descending FlightAware
02:57AM -32.3771 140.3046 138° Southeast 492 566 37,100  Climbing Aus ATC (RADAR)
02:57AM -32.3730 140.3000 138° Southeast 491 565 37,000 -162 Descending FlightAware
02:57AM -32.4360 140.3690 137° Southeast 485 558 37,000 81 Level FlightAware
02:58AM -32.5022 140.4401 137° Southeast 489 563 37,100  Climbing Aus ATC (RADAR)
02:58AM -32.5030 140.4410 137° Southeast 495 570 37,000 -162 Descending FlightAware
02:59AM -32.5640 140.5070 137° Southeast 497 572 37,000 154 Level FlightAware
02:59AM -32.5693 140.5131 137° Southeast 495 570 37,100  Climbing Aus ATC (RADAR)
02:59AM -32.6320 140.5810 138° Southeast 500 575 37,000 -78 Descending FlightAware
03:00AM -32.6960 140.6510 137° Southeast 493 567 37,000  Level FlightAware
03:00AM -32.7600 140.7220 137° Southeast 492 566 37,000  Level FlightAware
03:01AM -32.8060 140.7740 136° Southeast 492 566 37,000  Level FlightAware
03:02AM -32.8730 140.8460 138° Southeast 497 572 37,000  Level FlightAware
03:02AM -32.9410 140.9210 137° Southeast 497 572 37,000  Level FlightAware
03:03AM -32.9920 140.9770 137° Southeast 495 570 37,000  Level FlightAware
03:03AM -33.0500 141.0410 137° Southeast 495 570 37,000  Level FlightAware
03:04AM -33.1050 141.1020 137° Southeast 493 567 37,000 87 Level FlightAware
03:05AM -33.1665 141.1702 137° Southeast 491 565 37,100  Climbing Aus ATC (RADAR)
03:05AM -33.1690 141.1720 137° Southeast 493 567 37,000  Descending FlightAware
03:05AM -33.2252 141.2348 137° Southeast 491 565 37,100  Climbing Aus ATC (RADAR)
03:05AM -33.2270 141.2360 137° Southeast 493 567 37,000  Descending FlightAware
03:06AM -33.2999 141.3183 137° Southeast 491 565 37,100  Climbing Aus ATC (RADAR)
03:06AM -33.3090 141.3290 137° Southeast 493 567 37,000 -143 Descending FlightAware
03:07AM -33.3670 141.3940 137° Southeast 493 567 37,000  Level FlightAware
03:07AM -33.4330 141.4670 137° Southeast 493 567 37,000  Level FlightAware
03:08AM -33.5010 141.5430 137° Southeast 493 567 37,000  Level FlightAware
03:08AM -33.5470 141.5950 137° Southeast 494 568 37,000 182 Level FlightAware
03:08AM -33.5562 141.6069 137° Southeast 488 562 37,100 158 Climbing Aus ATC (RADAR)
03:09AM -33.6153 141.6727 137° Southeast 492 566 37,100 -162 Level Aus ATC (RADAR)
03:09AM -33.6160 141.6730 137° Southeast 494 568 37,000 -158 Descending FlightAware
03:10AM -33.6740 141.7370 137° Southeast 495 570 37,000  Level FlightAware
03:10AM -33.7250 141.7960 136° Southeast 496 571 37,000  Level FlightAware
03:11AM -33.7850 141.8640 137° Southeast 495 570 37,000  Level FlightAware
03:11AM -33.8480 141.9350 137° Southeast 496 571 37,000  Level FlightAware
03:12AM -33.9080 142.0030 137° Southeast 496 571 37,000  Level FlightAware
03:12AM -33.9600 142.0620 137° Southeast 496 571 37,000 95 Level FlightAware
03:13AM -34.0160 142.1263 137° Southeast 493 567 37,100  Climbing Aus ATC (RADAR)
03:13AM -34.0270 142.1390 137° Southeast 497 572 37,000 -162 Descending FlightAware
03:14AM -34.0760 142.1950 137° Southeast 497 572 37,000  Level FlightAware
03:14AM -34.1320 142.2590 137° Southeast 496 571 37,000 88 Level FlightAware
03:15AM -34.1902 142.3256 137° Southeast 492 566 37,100  Climbing Aus ATC (RADAR)
03:15AM -34.2000 142.3370 137° Southeast 492 566 37,000 -143 Descending FlightAware
03:15AM -34.2550 142.4000 137° Southeast 490 564 37,000  Level FlightAware
03:16AM -34.3020 142.4540 137° Southeast 491 565 37,000  Level FlightAware
03:17AM -34.3630 142.5250 136° Southeast 491 565 37,000  Level FlightAware
03:17AM -34.4290 142.6010 136° Southeast 490 564 37,000  Level FlightAware
03:18AM -34.4950 142.6770 136° Southeast 488 562 37,000 146 Level FlightAware
03:18AM -34.5012 142.6848 136° Southeast 487 560 37,100  Climbing Aus ATC (RADAR)
03:18AM -34.5500 142.7420 136° Southeast 480 552 37,000 -90 Descending FlightAware
03:19AM -34.6080 142.8090 136° Southeast 478 550 37,000  Level FlightAware
03:20AM -34.6640 142.8740 136° Southeast 477 549 37,000  Level FlightAware
03:20AM -34.7200 142.9400 136° Southeast 475 547 37,000  Level FlightAware
03:21AM -34.7760 143.0050 136° Southeast 475 547 37,000  Level FlightAware
03:21AM -34.8320 143.0720 136° Southeast 475 547 37,000  Level FlightAware
03:22AM -34.8960 143.1470 136° Southeast 475 547 37,000  Level FlightAware
03:23AM -34.9440 143.2040 136° Southeast 483 556 37,000 95 Level FlightAware
03:23AM -35.0028 143.2598 136° Southeast 477 549 37,100  Climbing Aus ATC (RADAR)
03:23AM -35.0060 143.2600 136° Southeast 474 545 37,000 -158 Descending FlightAware
03:24AM -35.0720 143.3090 149° Southeast 474 545 37,000  Level FlightAware
03:24AM -35.1350 143.3580 148° Southeast 474 545 37,000  Level FlightAware
03:25AM -35.2020 143.4080 149° Southeast 474 545 37,000  Level FlightAware
03:25AM -35.2750 143.4640 148° Southeast 474 545 37,000  Level FlightAware
03:26AM -35.3420 143.5140 149° Southeast 475 547 37,000  Level FlightAware
03:27AM -35.3990 143.5570 148° Southeast 476 548 37,000  Level FlightAware
03:27AM -35.4630 143.6060 148° Southeast 477 549 37,000  Level FlightAware
03:28AM -35.5380 143.6640 148° Southeast 478 550 37,000  Level FlightAware
03:28AM -35.6040 143.7140 148° Southeast 479 551 37,000  Level FlightAware
03:29AM -35.6620 143.7590 148° Southeast 474 545 37,000  Level FlightAware
03:30AM -35.7270 143.8080 149° Southeast 476 548 37,000 -91 Level FlightAware
03:30AM -35.7894 143.8551 149° Southeast 481 554 36,900 -343 Descending Aus ATC (RADAR)
03:30AM -35.7950 143.8600 149° Southeast 476 548 36,800 -1,050 Descending FlightAware
03:31AM -35.8639 143.9128 149° Southeast 471 542 36,200 -900 Descending Aus ATC (RADAR)
03:31AM -35.8680 143.9160 149° Southeast 472 543 36,200 -882 Level FlightAware
03:31AM -35.9240 143.9600 148° Southeast 460 529 35,700 -1,015 Descending FlightAware
03:32AM -35.9870 144.0090 148° Southeast 460 529 35,100 -1,167 Descending FlightAware
03:32AM -35.9916 144.0121 148° Southeast 461 531 35,000 -1,714 Descending Aus ATC (RADAR)
03:32AM -36.0520 144.0590 148° Southeast 458 527 34,100 -1,714 Descending FlightAware
03:32AM -36.0557 144.0615 148° Southeast 462 532 34,000 -2,550 Descending Aus ATC (RADAR)
03:33AM -36.1230 144.1150 148° Southeast 460 529 32,400 -2,435 Descending FlightAware
03:34AM -36.1780 144.1570 148° Southeast 452 520 31,200 -2,215 Descending FlightAware
03:34AM -36.2380 144.2040 148° Southeast 443 510 30,000 -2,189 Descending FlightAware
03:35AM -36.3060 144.2570 148° Southeast 425 489 28,500 -2,160 Descending FlightAware
03:35AM -36.3650 144.3030 148° Southeast 422 486 27,300 -2,031 Descending FlightAware
03:36AM -36.4140 144.3410 148° Southeast 408 470 26,300 -2,123 Descending FlightAware
03:37AM -36.4733 144.3880 148° Southeast 403 464 25,000 -2,000 Descending Aus ATC (RADAR)
03:37AM -36.4700 144.3850 148° Southeast 405 466 25,100 -1,846 Climbing FlightAware
03:37AM -36.5320 144.4340 148° Southeast 396 456 23,800 -1,971 Descending FlightAware
03:38AM -36.5790 144.4710 148° Southeast 383 441 22,800 -1,886 Descending FlightAware
03:38AM -36.6380 144.5180 147° Southeast 381 438 21,600 -1,886 Descending FlightAware
03:39AM -36.6856 144.5554 147° Southeast 370 426 20,600 -1,833 Descending Aus ATC (RADAR)
03:39AM -36.6910 144.5600 147° Southeast 366 421 20,500 -1,886 Descending FlightAware
03:39AM -36.7361 144.5955 147° Southeast 365 420 19,500 -1,800 Descending Aus ATC (RADAR)
03:39AM -36.7340 144.5940 147° Southeast 367 422 19,600 -1,543 Climbing FlightAware
03:40AM -36.7830 144.6330 147° Southeast 359 413 18,600 -1,840 Descending FlightAware
03:41AM -36.8450 144.6600 161° South 344 396 17,300 -1,800 Descending FlightAware
03:41AM -36.8910 144.6700 170° South 343 395 16,500 -1,714 Descending FlightAware
03:42AM -36.9550 144.6840 170° South 345 397 15,300 -1,800 Descending FlightAware
03:42AM -37.0010 144.6940 170° South 340 391 14,400 -1,754 Descending FlightAware
03:43AM -37.0550 144.7070 169° South 326 375 13,400 -1,714 Descending FlightAware
03:44AM -37.1070 144.7180 170° South 330 380 12,400 -1,760 Descending FlightAware
03:44AM -37.1680 144.7310 170° South 325 374 11,200 -1,714 Descending FlightAware
03:45AM -37.2110 144.7410 170° South 313 360 10,400 -943 Descending FlightAware
03:45AM -37.2680 144.7530 170° South 307 353 10,100 -508 Descending FlightAware
03:46AM -37.2980 144.7590 171° South 314 361 9,900 -1,200 Descending FlightAware
03:46AM -37.3260 144.7650 170° South 307 353 9,300 -1,857 Descending FlightAware
03:46AM -37.3580 144.7720 170° South 311 358 8,600 -1,043 Descending FlightAware
03:47AM -37.3920 144.7810 168° South 302 348 8,500 -400 Descending FlightAware
03:47AM -37.4200 144.7880 169° South 298 343 8,300 -600 Descending FlightAware
03:47AM -37.4470 144.7950 168° South 295 339 8,100 -514 Descending FlightAware
03:48AM -37.4640 144.7990 169° South 292 336 8,000 -514 Descending FlightAware
03:48AM -37.4900 144.8050 170° South 293 337 7,800 -1,050 Descending FlightAware
03:48AM -37.5200 144.8110 171° South 290 334 7,300 -1,371 Descending FlightAware
03:49AM -37.5340 144.8150 167° South 290 334 7,000 -1,440 Descending FlightAware
03:49AM -37.5500 144.8260 151° Southeast 297 342 6,700 -1,800 Descending FlightAware
03:49AM -37.5590 144.8400 129° Southeast 298 343 6,400 -1,200 Descending FlightAware
03:49AM -37.5630 144.8530 111° Southeast 296 341 6,300 -900 Descending FlightAware
03:49AM -37.5650 144.8710 98° East 290 334 6,100 -800 Descending FlightAware
03:50AM -37.5660 144.9050 92° East 280 322 5,900 -667 Descending FlightAware
03:50AM -37.5680 144.9420 94° East 271 312 5,600 -933 Descending FlightAware
03:50AM -37.5700 144.9760 94° East 262 302 5,200 -1,000 Descending FlightAware
03:51AM -37.5720 144.9910 100° East 259 298 5,100 -480 Descending FlightAware
03:51AM -37.5770 145.0050 114° Southeast 255 293 5,000 -1,000 Descending FlightAware
03:51AM -37.5910 145.0270 129° Southeast 252 290 4,600 -1,500 Descending FlightAware
03:51AM -37.5970 145.0310 152° Southeast 252 290 4,500 -960 Descending FlightAware
03:51AM -37.6160 145.0400 159° South 246 283 4,200 -1,000 Descending FlightAware
03:52AM -37.6260 145.0400 180° South 242 278 4,000 -1,400 Descending FlightAware
03:52AM -37.6480 145.0330 194° South 241 277 3,500 -1,400 Descending FlightAware
03:52AM -37.6570 145.0260 212° Southwest 219 252 3,300 -1,200 Descending FlightAware
03:52AM -37.6660 145.0100 235° Southwest 210 242 3,000 -960 Descending FlightAware
03:53AM -37.6680 145.0020 252° West 198 228 2,900 -900 Descending FlightAware
03:53AM -37.6700 144.9940 252° West 189 217 2,700 -968 Descending FlightAware
03:53AM -37.6690 144.9670 273° West 168 193 2,400 -1,024 Descending FlightAware
03:53AM -37.6680 144.9480 274° West 156 180 2,000 -1,029 Descending FlightAware
03:54AM -37.6670 144.9350 276° West 149 171 1,800 -514 Descending FlightAware
03:54AM -37.6670 144.9210 270° West 141 162 1,700 -600 Descending FlightAware
03:54AM -37.6660 144.9050 275° West 138 159 1,400 -857 Descending FlightAware
03:55AM -37.6650 144.8910 275° West 139 160 1,200 -811 Descending FlightAware
03:55AM -37.6640 144.8740 274° West 144 166 900 -824 Descending FlightAware
03:55AM -37.6620 144.8480 276° West 150 173 500 -436 Descending FlightAware
03:56AM -37.6620 144.8290 270° West 150 173 500  Level FlightAware

Login

Don't have an account? Register now (free) for customized features, flight alerts, and more!